Time;durP1;ratioP1;P1;durP2;ratioP2;P2;SDS_P1;SDS_P2;PMS_P1;PMS_P2;Temp;Humidity;BMP_temperature;BMP_pressure;BME280_temperature;BME280_humidity;BME280_pressure;Samples;Min_cycle;Max_cycle;Signal;HPM_P1;HPM_P2
2023/03/21 00:01:59;;;;;;;5.40;1.73;;;13.10;69.40;;;;;;5023559;28;20109;-79
2023/03/21 00:04:26;;;;;;;2.35;1.25;;;13.00;69.20;;;;;;5004894;28;20090;-79
2023/03/21 00:06:52;;;;;;;3.15;1.48;;;13.00;69.20;;;;;;4989731;28;20454;-79
2023/03/21 00:09:22;;;;;;;3.08;1.50;;;13.00;69.20;;;;;;5022946;28;20049;-80
2023/03/21 00:11:48;;;;;;;4.90;1.55;;;13.00;69.30;;;;;;5024344;28;20473;-79
2023/03/21 00:14:17;;;;;;;6.95;1.60;;;13.00;69.20;;;;;;5002174;28;20080;-80
2023/03/21 00:16:44;;;;;;;5.65;1.60;;;13.00;69.20;;;;;;5022010;28;20201;-79
2023/03/21 00:19:11;;;;;;;5.35;1.73;;;13.00;69.20;;;;;;4989310;28;20033;-78
2023/03/21 00:21:41;;;;;;;5.03;1.58;;;13.00;69.20;;;;;;5019988;28;20114;-78
2023/03/21 00:24:10;;;;;;;7.78;1.60;;;13.00;69.30;;;;;;4981859;28;20485;-80
2023/03/21 00:26:37;;;;;;;5.43;1.70;;;13.00;69.30;;;;;;5004903;28;20580;-80
2023/03/21 00:29:03;;;;;;;3.45;1.48;;;12.90;69.20;;;;;;5001979;28;20180;-80
2023/03/21 00:31:29;;;;;;;6.28;1.73;;;12.90;69.20;;;;;;4988363;28;20044;-78
2023/03/21 00:33:55;;;;;;;4.90;2.10;;;12.90;69.20;;;;;;5004882;28;20041;-77
2023/03/21 00:36:24;;;;;;;3.35;1.50;;;12.90;69.20;;;;;;5004922;28;20026;-80
2023/03/21 00:38:52;;;;;;;4.47;1.98;;;12.90;69.20;;;;;;4972937;28;20055;-79
2023/03/21 00:44:35;;;;;;;4.32;1.52;;;12.80;69.10;;;;;;5009655;28;20129;-80
2023/03/21 00:47:20;;;;;;;5.65;1.60;;;12.80;69.10;;;;;;5020498;28;20312;-79
2023/03/21 00:49:45;;;;;;;3.50;1.40;;;12.80;69.20;;;;;;5007021;28;20045;-80
2023/03/21 00:52:13;;;;;;;6.50;1.70;;;12.80;69.20;;;;;;5016344;28;20469;-80
2023/03/21 00:54:39;;;;;;;3.13;1.30;;;12.80;69.20;;;;;;5004154;28;20034;-79
2023/03/21 00:57:07;;;;;;;1.58;1.42;;;12.80;69.30;;;;;;5004723;28;20033;-78
2023/03/21 00:59:33;;;;;;;3.33;1.50;;;12.80;69.30;;;;;;5004035;28;20098;-79
2023/03/21 01:01:59;;;;;;;4.15;1.95;;;12.70;69.20;;;;;;5018085;28;20736;-77
2023/03/21 01:04:27;;;;;;;4.22;1.50;;;12.80;69.40;;;;;;5008488;28;20033;-78
2023/03/21 01:06:54;;;;;;;4.07;1.50;;;12.80;69.40;;;;;;5020906;28;20059;-76
2023/03/21 01:09:22;;;;;;;3.83;2.13;;;12.80;69.40;;;;;;5003195;28;20210;-78
2023/03/21 01:11:49;;;;;;;7.13;1.90;;;12.70;69.30;;;;;;5022114;28;20025;-79
2023/03/21 01:14:17;;;;;;;5.95;2.15;;;12.70;69.20;;;;;;5004820;28;20587;-80
2023/03/21 01:16:44;;;;;;;4.20;1.92;;;12.80;69.40;;;;;;4995343;28;20041;-81
2023/03/21 01:19:15;;;;;;;2.40;1.10;;;12.70;69.20;;;;;;5007666;28;20037;-78
2023/03/21 01:21:42;;;;;;;2.58;1.10;;;12.80;70.00;;;;;;5000806;28;20033;-80
2023/03/21 01:24:09;;;;;;;3.30;1.20;;;12.70;69.30;;;;;;5021361;28;20041;-81
2023/03/21 01:26:38;;;;;;;3.00;1.30;;;12.70;69.30;;;;;;5025937;28;20040;-79
2023/03/21 01:29:04;;;;;;;2.85;1.40;;;12.70;69.40;;;;;;5019052;28;20037;-79
2023/03/21 01:31:31;;;;;;;4.63;1.50;;;12.70;69.40;;;;;;5023043;28;20064;-77
2023/03/21 01:33:58;;;;;;;2.45;1.40;;;12.70;69.40;;;;;;5008583;28;20044;-77
2023/03/21 01:36:25;;;;;;;2.33;1.65;;;12.70;69.50;;;;;;5002337;28;20504;-77
2023/03/21 01:38:57;;;;;;;2.72;1.10;;;12.70;69.50;;;;;;5010515;28;20051;-78
2023/03/21 01:41:31;;;;;;;3.85;1.70;;;12.70;69.50;;;;;;5001116;28;20034;-78
2023/03/21 01:43:58;;;;;;;3.75;1.35;;;12.70;69.60;;;;;;5003659;28;20089;-77
2023/03/21 01:46:51;;;;;;;2.40;1.08;;;12.70;69.50;;;;;;5006307;28;20083;-79
2023/03/21 01:49:39;;;;;;;2.47;1.42;;;12.70;69.60;;;;;;5005090;28;20508;-78
2023/03/21 01:52:37;;;;;;;3.25;1.30;;;12.70;69.60;;;;;;5017600;28;20045;-78
2023/03/21 01:55:10;;;;;;;1.90;1.30;;;12.70;69.60;;;;;;5002378;28;20100;-77
2023/03/21 01:57:51;;;;;;;2.72;1.10;;;12.70;69.60;;;;;;5023634;28;20037;-77
2023/03/21 02:00:21;;;;;;;2.53;2.17;;;12.70;69.70;;;;;;5001017;28;20029;-79
2023/03/21 02:02:56;;;;;;;2.95;2.00;;;12.60;69.50;;;;;;4998569;28;20034;-78
2023/03/21 02:05:52;;;;;;;4.22;1.38;;;12.70;69.70;;;;;;5013423;28;20505;-80
2023/03/21 02:08:23;;;;;;;3.10;2.28;;;12.60;69.60;;;;;;4989734;28;20034;-79
2023/03/21 02:10:50;;;;;;;5.03;1.88;;;12.60;69.50;;;;;;5007498;28;20120;-79
2023/03/21 02:13:28;;;;;;;4.18;2.03;;;12.70;69.70;;;;;;4999453;28;20048;-78
2023/03/21 02:15:58;;;;;;;2.95;1.65;;;12.60;69.60;;;;;;5004593;28;20055;-77
2023/03/21 02:18:58;;;;;;;4.85;1.80;;;12.60;69.60;;;;;;5005560;28;20323;-77
2023/03/21 02:21:45;;;;;;;2.47;1.73;;;12.60;69.70;;;;;;5006408;28;20087;-77
2023/03/21 02:24:47;;;;;;;3.13;1.90;;;12.60;69.60;;;;;;4999862;28;20041;-77
2023/03/21 02:27:20;;;;;;;6.38;2.10;;;12.60;69.70;;;;;;5022962;28;20030;-81
2023/03/21 02:30:00;;;;;;;4.40;2.10;;;12.60;69.60;;;;;;5019120;28;20026;-80
2023/03/21 02:32:32;;;;;;;3.75;1.85;;;12.60;69.70;;;;;;5018116;28;20112;-78
2023/03/21 02:35:37;;;;;;;6.07;2.83;;;12.60;69.70;;;;;;5009611;28;20132;-79
2023/03/21 02:38:10;;;;;;;6.40;2.40;;;12.60;69.80;;;;;;5007015;28;20040;-80
2023/03/21 02:40:40;;;;;;;5.55;1.90;;;12.50;69.60;;;;;;5014386;28;20175;-80
2023/03/21 02:43:18;;;;;;;5.85;2.70;;;12.50;69.60;;;;;;5021243;28;20103;-79
2023/03/21 02:46:00;;;;;;;4.70;2.17;;;12.50;69.70;;;;;;5001330;28;20033;-79
2023/03/21 02:48:38;;;;;;;8.18;2.53;;;12.50;69.70;;;;;;5022533;28;20128;-81
2023/03/21 02:51:06;;;;;;;5.55;2.65;;;12.50;69.70;;;;;;4999946;28;20174;-82
2023/03/21 02:53:37;;;;;;;7.32;2.55;;;12.50;69.70;;;;;;5006514;28;20528;-80
2023/03/21 02:56:09;;;;;;;4.93;2.90;;;12.50;69.80;;;;;;5017863;28;20448;-81
2023/03/21 02:58:40;;;;;;;6.32;2.28;;;12.50;69.80;;;;;;5014450;28;20038;-79
2023/03/21 03:01:08;;;;;;;4.50;2.20;;;12.60;70.00;;;;;;5002814;28;20022;-79
2023/03/21 03:03:42;;;;;;;4.68;2.63;;;12.60;70.00;;;;;;5000748;28;20616;-79
2023/03/21 03:06:23;;;;;;;5.38;2.33;;;12.50;69.80;;;;;;5020944;28;20064;-78
2023/03/21 03:09:12;;;;;;;4.78;2.47;;;12.50;69.90;;;;;;4998351;28;20108;-79
2023/03/21 03:11:45;;;;;;;5.07;2.50;;;12.50;69.90;;;;;;5009812;28;20061;-83
2023/03/21 03:14:30;;;;;;;8.52;2.95;;;12.50;69.90;;;;;;4992736;28;20069;-82
2023/03/21 03:17:19;;;;;;;7.63;3.22;;;12.50;70.00;;;;;;5019111;28;20506;-82
2023/03/21 03:20:23;;;;;;;5.55;2.72;;;12.50;70.00;;;;;;5018399;28;20152;-80
2023/03/21 03:23:04;;;;;;;6.25;2.83;;;12.50;70.00;;;;;;4953193;28;20096;-81
2023/03/21 03:25:59;;;;;;;6.28;2.58;;;12.50;70.00;;;;;;5009761;28;20569;-81
2023/03/21 03:28:31;;;;;;;8.07;2.90;;;12.50;70.00;;;;;;5024521;28;20044;-79
2023/03/21 03:30:58;;;;;;;8.90;3.00;;;12.50;70.00;;;;;;4998535;28;20044;-81
2023/03/21 03:33:28;;;;;;;10.60;3.22;;;12.50;70.00;;;;;;5010121;28;20060;-80
2023/03/21 03:35:56;;;;;;;7.85;2.50;;;12.50;70.00;;;;;;5008069;28;20029;-78
2023/03/21 03:38:26;;;;;;;6.35;2.17;;;12.50;70.10;;;;;;5020930;28;20029;-80
2023/03/21 03:40:56;;;;;;;7.78;3.08;;;12.50;70.20;;;;;;5007924;28;20041;-82
2023/03/21 03:43:46;;;;;;;;;;;12.50;70.20;;;;;;5006241;28;20033;-80
2023/03/21 03:46:35;;;;;;;8.23;2.70;;;12.50;70.10;;;;;;5013782;28;19923;-79
2023/03/21 03:49:16;;;;;;;5.25;3.17;;;12.40;69.90;;;;;;5007081;28;20626;-78
2023/03/21 03:52:02;;;;;;;4.75;2.38;;;12.50;70.10;;;;;;5003498;28;20044;-78
2023/03/21 03:54:42;;;;;;;11.18;3.78;;;12.40;70.00;;;;;;5007494;28;20033;-78
2023/03/21 03:57:11;;;;;;;5.53;2.80;;;12.50;70.20;;;;;;5027524;28;20132;-79
2023/03/21 03:59:39;;;;;;;3.10;2.00;;;12.40;70.00;;;;;;5012928;28;20022;-79
2023/03/21 04:02:25;;;;;;;6.93;2.47;;;12.50;70.20;;;;;;5051592;28;20052;-78
2023/03/21 04:04:52;;;;;;;8.55;2.40;;;12.40;70.10;;;;;;5031835;28;20029;-79
2023/03/21 04:07:21;;;;;;;6.85;1.98;;;12.50;70.30;;;;;;5012096;28;20029;-79
2023/03/21 04:09:48;;;;;;;5.03;1.75;;;12.50;70.30;;;;;;5032982;28;20528;-78
2023/03/21 04:12:18;;;;;;;4.20;2.05;;;12.50;70.40;;;;;;5028056;28;20244;-78
2023/03/21 04:15:07;;;;;;;8.50;2.13;;;12.40;70.20;;;;;;5022309;28;20041;-80
2023/03/21 04:17:33;;;;;;;4.65;2.30;;;12.40;70.20;;;;;;5016682;28;20046;-81
2023/03/21 04:19:59;;;;;;;4.80;2.10;;;12.40;70.30;;;;;;5030446;28;20104;-79
2023/03/21 04:22:25;;;;;;;4.43;1.65;;;12.40;70.30;;;;;;5027201;28;20057;-81
2023/03/21 04:24:52;;;;;;;3.20;1.70;;;12.40;70.40;;;;;;5009691;28;20044;-80
2023/03/21 04:27:18;;;;;;;3.60;1.73;;;12.40;70.40;;;;;;5011128;28;20033;-79
2023/03/21 04:30:04;;;;;;;4.63;1.83;;;12.40;70.40;;;;;;5010746;28;20084;-81
2023/03/21 04:32:59;;;;;;;6.43;1.98;;;12.40;70.40;;;;;;5008438;28;20690;-82
2023/03/21 04:35:28;;;;;;;3.70;1.73;;;12.40;70.50;;;;;;5008567;28;20060;-83
2023/03/21 04:37:57;;;;;;;3.78;1.30;;;12.30;70.30;;;;;;5010409;28;20095;-82
2023/03/21 04:40:26;;;;;;;5.07;1.85;;;12.30;70.30;;;;;;5014562;28;20178;-82
2023/03/21 04:43:13;;;;;;;5.65;2.30;;;12.30;70.30;;;;;;5026204;28;20313;-80
2023/03/21 04:45:39;;;;;;;5.57;2.53;;;12.40;70.50;;;;;;5020164;28;20038;-79
2023/03/21 04:48:06;;;;;;;4.00;1.75;;;12.40;70.50;;;;;;5025582;28;20049;-78
2023/03/21 04:50:32;;;;;;;6.18;2.00;;;12.40;70.60;;;;;;5005462;28;20033;-78
2023/03/21 04:52:59;;;;;;;2.50;1.63;;;12.40;70.60;;;;;;5006838;28;20033;-78
2023/03/21 04:55:28;;;;;;;3.80;1.90;;;12.40;70.60;;;;;;5005045;28;20049;-78
2023/03/21 04:57:54;;;;;;;3.75;2.17;;;12.40;70.60;;;;;;5006709;28;20082;-78
2023/03/21 05:00:22;;;;;;;4.80;1.40;;;12.40;70.60;;;;;;5023478;28;20048;-79
2023/03/21 05:02:48;;;;;;;4.03;2.33;;;12.40;70.70;;;;;;5005513;28;20037;-78
2023/03/21 05:05:14;;;;;;;4.47;1.85;;;12.40;70.70;;;;;;5024263;28;20428;-78
2023/03/21 05:07:40;;;;;;;4.97;1.40;;;12.40;70.70;;;;;;5022084;28;20021;-77
2023/03/21 05:10:10;;;;;;;4.97;1.70;;;12.40;70.70;;;;;;5021389;28;20045;-79
2023/03/21 05:12:40;;;;;;;4.75;1.90;;;12.40;70.70;;;;;;5004675;28;20034;-79
2023/03/21 05:15:07;;;;;;;3.28;1.73;;;12.40;70.70;;;;;;5004674;28;20025;-79
2023/03/21 05:17:36;;;;;;;4.13;1.80;;;12.30;70.60;;;;;;5005767;28;20542;-78
2023/03/21 05:20:03;;;;;;;4.32;1.85;;;12.40;70.80;;;;;;5020387;28;20028;-80
2023/03/21 05:22:39;;;;;;;4.97;1.50;;;12.30;70.60;;;;;;5007048;28;20033;-79
2023/03/21 05:25:09;;;;;;;4.70;1.60;;;12.30;70.70;;;;;;4988328;28;20560;-79
2023/03/21 05:27:53;;;;;;;1.70;1.30;;;12.30;70.70;;;;;;5022444;28;20657;-79
2023/03/21 05:30:25;;;;;;;3.67;1.75;;;12.30;70.80;;;;;;4989318;28;20041;-78
2023/03/21 05:32:56;;;;;;;3.72;1.40;;;12.20;70.60;;;;;;5005729;28;20038;-79
2023/03/21 05:35:23;;;;;;;3.85;1.40;;;12.20;70.70;;;;;;4990485;28;20044;-79
2023/03/21 05:37:49;;;;;;;3.55;1.30;;;12.20;70.80;;;;;;4990518;28;20149;-79
2023/03/21 05:40:16;;;;;;;2.83;1.23;;;12.20;70.80;;;;;;5008977;28;20038;-79
2023/03/21 05:42:45;;;;;;;3.20;1.42;;;12.20;70.90;;;;;;5026742;28;20025;-78
2023/03/21 05:45:16;;;;;;;5.15;1.52;;;12.20;70.80;;;;;;5007827;28;20041;-79
2023/03/21 05:47:44;;;;;;;5.10;2.17;;;12.10;70.70;;;;;;5020244;28;20053;-79
2023/03/21 05:50:12;;;;;;;3.85;1.35;;;12.10;70.70;;;;;;4994131;28;20143;-77
2023/03/21 05:52:41;;;;;;;5.22;2.55;;;12.10;70.80;;;;;;5003555;28;20080;-78
2023/03/21 05:55:11;;;;;;;6.82;2.42;;;12.10;70.80;;;;;;5011325;28;20039;-78
2023/03/21 05:57:40;;;;;;;6.10;1.65;;;12.10;70.80;;;;;;5008115;28;20021;-78
2023/03/21 06:00:12;;;;;;;5.90;1.90;;;12.00;70.70;;;;;;5010450;28;20095;-79
2023/03/21 06:02:42;;;;;;;3.60;1.60;;;12.00;70.70;;;;;;5027063;28;20082;-79
2023/03/21 06:05:26;;;;;;;5.45;1.65;;;12.00;70.80;;;;;;5010632;28;20091;-79
2023/03/21 06:07:52;;;;;;;7.88;1.60;;;11.90;70.60;;;;;;5023415;28;20045;-80
2023/03/21 06:10:20;;;;;;;4.70;1.40;;;12.00;70.90;;;;;;5014224;28;20083;-80
2023/03/21 06:12:48;;;;;;;8.93;2.13;;;11.90;70.70;;;;;;4994769;28;20908;-80
2023/03/21 06:15:33;;;;;;;4.47;2.00;;;11.90;70.70;;;;;;5011566;28;20224;-80
2023/03/21 06:18:12;;;;;;;6.88;2.30;;;11.90;70.80;;;;;;5014004;28;20501;-78
2023/03/21 06:20:47;;;;;;;5.95;1.67;;;11.90;70.80;;;;;;5011417;28;20122;-78
2023/03/21 06:23:14;;;;;;;6.93;2.22;;;11.90;70.80;;;;;;5007626;28;20159;-80
2023/03/21 06:25:41;;;;;;;8.00;2.88;;;11.90;70.80;;;;;;4994050;28;20110;-80
2023/03/21 06:28:07;;;;;;;6.47;2.17;;;11.90;70.80;;;;;;5019043;28;20033;-83
2023/03/21 06:30:38;;;;;;;7.53;2.00;;;11.90;70.80;;;;;;5009379;28;20037;-82
2023/03/21 06:33:18;;;;;;;5.75;2.47;;;12.00;71.10;;;;;;4998026;28;20037;-82
2023/03/21 06:35:54;;;;;;;4.63;1.80;;;12.00;71.00;;;;;;5007199;28;20145;-85
2023/03/21 06:38:21;;;;;;;5.25;1.80;;;12.00;71.10;;;;;;4989321;28;20529;-87
2023/03/21 06:40:51;;;;;;;5.35;1.75;;;12.00;71.00;;;;;;5000655;28;20116;-87
2023/03/21 06:43:17;;;;;;;7.60;2.58;;;12.00;71.10;;;;;;5000391;28;20124;-86
2023/03/21 06:45:45;;;;;;;6.13;2.03;;;12.10;71.20;;;;;;5017273;28;20044;-86
2023/03/21 06:48:11;;;;;;;7.20;3.25;;;12.10;71.10;;;;;;5012235;28;20049;-89
2023/03/21 06:50:49;;;;;;;7.32;2.25;;;12.20;71.20;;;;;;5005276;28;20132;-84
2023/03/21 06:53:16;;;;;;;6.22;2.00;;;12.20;71.20;;;;;;5012127;28;20087;-85
2023/03/21 06:56:01;;;;;;;7.93;2.03;;;12.20;71.10;;;;;;5039062;28;20095;-85
2023/03/21 06:58:27;;;;;;;6.25;2.40;;;12.20;71.00;;;;;;5000455;28;20025;-79
2023/03/21 07:00:57;;;;;;;5.70;1.88;;;12.30;71.10;;;;;;5002537;28;20489;-78
2023/03/21 07:03:23;;;;;;;6.07;2.08;;;12.30;71.00;;;;;;5005159;28;20037;-80
2023/03/21 07:05:50;;;;;;;10.07;2.65;;;12.30;71.00;;;;;;5003575;28;20037;-79
2023/03/21 07:08:16;;;;;;;9.93;2.60;;;12.30;71.00;;;;;;5006932;28;20099;-79
2023/03/21 07:10:43;;;;;;;9.80;2.20;;;12.40;71.20;;;;;;5006579;28;20037;-80
2023/03/21 07:13:10;;;;;;;6.75;2.15;;;12.40;71.20;;;;;;5007968;28;20099;-79
2023/03/21 07:15:42;;;;;;;7.47;1.85;;;12.40;71.10;;;;;;5006729;28;20055;-82
2023/03/21 07:18:09;;;;;;;5.13;2.00;;;12.50;71.20;;;;;;5022200;28;20366;-81
2023/03/21 07:20:39;;;;;;;6.68;2.17;;;12.60;71.30;;;;;;4989334;28;20041;-79
2023/03/21 07:23:05;;;;;;;8.23;1.90;;;12.60;71.20;;;;;;5012950;28;20347;-80
2023/03/21 07:25:33;;;;;;;7.03;1.88;;;12.80;71.50;;;;;;5004537;28;20540;-80
2023/03/21 07:27:59;;;;;;;11.05;2.88;;;12.80;71.30;;;;;;5006577;28;20045;-80
2023/03/21 07:30:26;;;;;;;4.82;2.08;;;13.00;71.40;;;;;;5005845;28;20040;-80
2023/03/21 07:32:53;;;;;;;5.28;1.85;;;13.20;71.40;;;;;;5002597;28;20029;-79
2023/03/21 07:35:19;;;;;;;5.60;1.70;;;13.40;71.40;;;;;;5007687;28;20566;-79
2023/03/21 07:37:48;;;;;;;5.13;1.60;;;13.60;71.30;;;;;;5002593;28;20041;-81
2023/03/21 07:40:16;;;;;;;7.60;2.03;;;13.70;71.20;;;;;;5005235;28;20037;-81
2023/03/21 07:42:42;;;;;;;5.65;1.80;;;13.80;71.10;;;;;;5006727;28;20473;-83
2023/03/21 07:45:14;;;;;;;7.18;1.77;;;13.90;71.10;;;;;;5004122;28;20044;-80
2023/03/21 07:47:41;;;;;;;4.93;1.73;;;14.00;71.00;;;;;;5014774;28;20042;-79
2023/03/21 07:50:07;;;;;;;6.68;1.88;;;14.20;71.20;;;;;;5017702;28;20072;-81
2023/03/21 07:52:34;;;;;;;6.30;2.40;;;14.40;71.30;;;;;;5024825;28;20069;-81
2023/03/21 07:54:59;;;;;;;4.93;1.52;;;14.50;71.20;;;;;;5024751;28;20717;-79
2023/03/21 07:57:25;;;;;;;6.78;1.75;;;14.60;71.10;;;;;;5019874;28;20251;-80
2023/03/21 07:59:51;;;;;;;6.25;1.90;;;14.70;71.00;;;;;;5019947;28;20044;-81
2023/03/21 08:02:19;;;;;;;5.10;1.80;;;14.70;70.90;;;;;;5017707;28;20074;-80
2023/03/21 08:04:45;;;;;;;5.05;1.90;;;14.70;70.80;;;;;;5004295;28;20936;-80
2023/03/21 08:07:12;;;;;;;8.77;1.85;;;14.80;71.40;;;;;;5019808;28;20037;-78
2023/03/21 08:09:39;;;;;;;2.97;1.52;;;14.80;70.90;;;;;;5003579;28;20476;-80
2023/03/21 08:12:07;;;;;;;6.43;2.80;;;14.90;71.00;;;;;;5017404;28;20087;-77
2023/03/21 08:14:34;;;;;;;4.55;1.80;;;14.80;70.80;;;;;;5016573;28;20072;-78
2023/03/21 08:17:00;;;;;;;4.97;1.50;;;15.00;71.00;;;;;;5017483;28;20080;-78
2023/03/21 08:19:26;;;;;;;4.68;1.60;;;15.10;71.00;;;;;;5018587;28;20146;-78
2023/03/21 08:21:52;;;;;;;2.45;1.30;;;15.20;70.90;;;;;;5016345;28;20466;-79
2023/03/21 08:24:19;;;;;;;4.90;1.60;;;15.30;70.80;;;;;;5021648;28;20033;-78
2023/03/21 08:26:45;;;;;;;4.65;1.35;;;15.40;70.80;;;;;;5020023;28;20061;-81
2023/03/21 08:29:12;;;;;;;4.28;1.40;;;15.50;70.80;;;;;;5018857;28;20094;-78
2023/03/21 08:31:39;;;;;;;4.07;1.65;;;15.60;70.60;;;;;;5017712;28;20041;-77
2023/03/21 08:34:06;;;;;;;5.78;1.30;;;15.80;70.60;;;;;;5016808;28;20087;-76
2023/03/21 08:36:32;;;;;;;6.10;1.52;;;15.90;70.40;;;;;;5019339;28;20041;-78
2023/03/21 08:39:04;;;;;;;5.65;2.00;;;16.00;70.30;;;;;;5028635;28;20097;-77
2023/03/21 08:41:31;;;;;;;5.93;1.80;;;16.00;70.10;;;;;;5019105;28;20042;-77
2023/03/21 08:43:57;;;;;;;3.03;1.08;;;16.10;70.10;;;;;;5021991;28;20411;-80
2023/03/21 08:46:24;;;;;;;7.05;1.77;;;16.10;70.00;;;;;;5024542;28;20059;-78
2023/03/21 08:48:50;;;;;;;5.05;0.90;;;16.10;70.00;;;;;;5022321;28;20045;-77
2023/03/21 08:51:15;;;;;;;6.15;1.83;;;16.00;69.90;;;;;;5019804;28;20057;-78
2023/03/21 08:53:42;;;;;;;7.40;1.27;;;16.00;69.90;;;;;;5030133;28;20064;-81
2023/03/21 08:56:10;;;;;;;3.05;0.98;;;16.00;70.20;;;;;;5021874;28;20473;-79
2023/03/21 08:58:37;;;;;;;4.65;1.15;;;16.00;70.60;;;;;;5008688;28;20037;-78
2023/03/21 09:01:05;;;;;;;6.38;1.40;;;16.10;70.80;;;;;;5004498;28;20061;-77
2023/03/21 09:03:32;;;;;;;4.75;1.15;;;16.10;70.90;;;;;;5022231;28;20120;-77
2023/03/21 09:06:01;;;;;;;5.25;1.83;;;16.10;70.90;;;;;;5023177;28;20420;-78
2023/03/21 09:08:27;;;;;;;5.55;1.33;;;16.20;71.00;;;;;;5008668;28;20028;-78
2023/03/21 09:10:53;;;;;;;3.03;1.23;;;16.30;71.00;;;;;;5003990;28;20045;-78
2023/03/21 09:13:20;;;;;;;4.18;1.60;;;16.30;71.00;;;;;;5004488;28;20764;-77
2023/03/21 09:15:47;;;;;;;6.53;1.77;;;16.30;70.90;;;;;;5020304;28;20037;-80
2023/03/21 09:18:14;;;;;;;3.53;1.23;;;16.40;71.00;;;;;;5008121;28;20446;-79
2023/03/21 09:20:43;;;;;;;2.67;1.13;;;16.40;71.00;;;;;;5019030;28;20045;-83
2023/03/21 09:23:11;;;;;;;2.53;1.13;;;16.40;70.90;;;;;;5002293;28;20037;-79
2023/03/21 09:25:39;;;;;;;4.45;1.30;;;16.50;71.00;;;;;;4987236;28;20400;-81
2023/03/21 09:28:05;;;;;;;4.97;1.33;;;16.60;71.00;;;;;;5022964;28;20379;-80
2023/03/21 09:30:34;;;;;;;3.70;1.10;;;16.70;70.80;;;;;;5036624;28;20037;-80
2023/03/21 09:33:05;;;;;;;2.72;1.15;;;16.90;70.90;;;;;;5043972;28;20047;-79
2023/03/21 09:35:34;;;;;;;4.55;1.35;;;17.00;70.70;;;;;;5040073;28;20225;-79
2023/03/21 09:38:01;;;;;;;4.75;0.75;;;17.10;70.70;;;;;;5026554;28;20117;-77
2023/03/21 09:40:42;;;;;;;4.20;0.90;;;17.10;70.50;;;;;;5017605;28;20092;-78
2023/03/21 09:43:21;;;;;;;1.58;0.93;;;17.20;70.50;;;;;;5024231;28;20044;-80
2023/03/21 09:46:01;;;;;;;1.90;0.93;;;17.30;70.40;;;;;;5018544;28;20173;-78
2023/03/21 09:48:49;;;;;;;3.50;1.13;;;17.30;70.20;;;;;;5039133;28;20082;-79
2023/03/21 09:51:18;;;;;;;3.05;1.13;;;17.40;70.10;;;;;;5023839;28;20041;-79
2023/03/21 09:53:48;;;;;;;3.25;0.90;;;17.50;70.10;;;;;;5034281;28;20119;-78
2023/03/21 09:56:16;;;;;;;2.78;0.90;;;17.50;69.90;;;;;;5032090;28;20048;-78
2023/03/21 09:58:45;;;;;;;6.53;1.65;;;17.60;69.90;;;;;;5042715;28;20171;-77
2023/03/21 10:01:40;;;;;;;3.95;1.35;;;17.70;69.80;;;;;;5041919;28;20033;-77
2023/03/21 10:04:11;;;;;;;1.70;0.77;;;17.80;69.50;;;;;;5038424;28;20028;-78
2023/03/21 10:06:40;;;;;;;5.47;1.35;;;18.00;69.70;;;;;;5022709;28;20044;-76
2023/03/21 10:09:15;;;;;;;3.58;0.98;;;18.00;69.40;;;;;;5033017;28;20034;-79
2023/03/21 10:11:46;;;;;;;4.93;1.48;;;18.10;69.50;;;;;;5036559;28;20555;-78
2023/03/21 10:14:19;;;;;;;2.17;0.90;;;18.20;69.40;;;;;;5031069;28;20071;-78
2023/03/21 10:16:56;;;;;;;4.25;1.02;;;18.30;69.10;;;;;;5019171;28;20226;-79
2023/03/21 10:19:28;;;;;;;3.03;1.30;;;18.40;68.90;;;;;;5021823;28;20060;-79
2023/03/21 10:21:57;;;;;;;4.97;1.15;;;18.50;68.90;;;;;;5038275;28;20063;-79
2023/03/21 10:24:27;;;;;;;2.25;0.90;;;18.50;68.70;;;;;;5025724;28;20037;-78
2023/03/21 10:26:54;;;;;;;3.88;0.93;;;18.50;68.50;;;;;;5051795;28;20025;-78
2023/03/21 10:29:25;;;;;;;3.67;1.67;;;18.60;68.40;;;;;;5045263;28;20044;-76
2023/03/21 10:31:51;;;;;;;2.30;1.42;;;18.60;68.30;;;;;;5044300;28;20276;-77
2023/03/21 10:34:37;;;;;;;3.67;0.90;;;18.60;68.20;;;;;;5031743;28;20429;-79
2023/03/21 10:37:03;;;;;;;3.35;0.88;;;18.50;67.80;;;;;;5046340;28;20087;-77
2023/03/21 10:39:32;;;;;;;2.42;0.70;;;18.60;67.90;;;;;;5034183;28;20036;-76
2023/03/21 10:41:58;;;;;;;3.85;1.25;;;18.60;67.80;;;;;;5025775;28;20036;-79
2023/03/21 10:44:30;;;;;;;3.63;1.02;;;18.70;67.80;;;;;;5045568;28;20234;-79
2023/03/21 10:47:05;;;;;;;2.80;1.30;;;18.70;67.40;;;;;;5020730;28;20402;-79
2023/03/21 10:49:36;;;;;;;2.83;1.13;;;18.90;67.60;;;;;;5023712;28;20041;-78
2023/03/21 10:52:07;;;;;;;3.47;0.70;;;19.10;67.40;;;;;;5020456;28;20146;-77
2023/03/21 10:54:36;;;;;;;1.67;0.90;;;19.30;67.30;;;;;;5023329;28;20068;-78
2023/03/21 10:57:12;;;;;;;2.30;0.70;;;19.50;67.00;;;;;;5022671;28;20127;-79
2023/03/21 10:59:46;;;;;;;3.72;0.60;;;19.60;66.40;;;;;;5026586;28;20030;-78
2023/03/21 11:02:39;;;;;;;2.00;0.90;;;19.70;66.10;;;;;;5020100;28;20746;-77
2023/03/21 11:05:32;;;;;;;1.42;0.60;;;19.70;66.00;;;;;;5033152;28;20063;-78
2023/03/21 11:08:05;;;;;;;1.95;0.93;;;19.60;65.80;;;;;;5022885;28;20215;-78
2023/03/21 11:10:47;;;;;;;1.50;0.60;;;19.60;66.10;;;;;;5030727;28;20330;-80
2023/03/21 11:13:22;;;;;;;1.45;0.68;;;19.60;66.10;;;;;;5030467;28;20033;-78
2023/03/21 11:15:52;;;;;;;1.20;0.45;;;19.60;66.10;;;;;;5025484;28;20071;-80
2023/03/21 11:18:25;;;;;;;1.60;0.77;;;19.60;66.00;;;;;;5030165;28;20113;-79
2023/03/21 11:21:04;;;;;;;2.13;0.98;;;19.70;66.10;;;;;;5015577;28;20443;-79
2023/03/21 11:23:35;;;;;;;10.20;1.73;;;19.70;66.00;;;;;;5010800;28;20052;-80
2023/03/21 11:26:07;;;;;;;3.05;0.85;;;19.80;65.90;;;;;;5020950;28;20463;-79
2023/03/21 11:28:39;;;;;;;3.22;1.27;;;19.80;65.80;;;;;;5023553;28;20037;-78
2023/03/21 11:31:08;;;;;;;2.13;0.80;;;19.80;65.80;;;;;;5026393;28;20071;-79
2023/03/21 11:33:43;;;;;;;3.63;0.93;;;19.90;65.80;;;;;;5021767;28;20038;-78
2023/03/21 11:36:20;;;;;;;2.50;0.90;;;19.90;65.70;;;;;;5017845;28;20580;-79
2023/03/21 11:38:58;;;;;;;5.20;1.25;;;20.10;65.70;;;;;;5024018;28;20037;-80
2023/03/21 11:41:31;;;;;;;1.90;1.08;;;20.10;65.30;;;;;;5024250;28;20099;-81
2023/03/21 11:44:01;;;;;;;5.55;1.30;;;20.20;65.20;;;;;;5029097;28;20031;-81
2023/03/21 11:46:38;;;;;;;4.95;1.20;;;20.30;65.30;;;;;;5025929;28;20072;-81
2023/03/21 11:49:04;;;;;;;4.72;1.30;;;20.30;65.00;;;;;;5040794;28;20033;-80
2023/03/21 11:51:49;;;;;;;4.60;1.02;;;20.40;65.10;;;;;;5019201;28;20056;-81
2023/03/21 11:54:48;;;;;;;5.32;1.30;;;20.50;64.80;;;;;;5035691;28;20041;-80
2023/03/21 11:57:31;;;;;;;5.32;1.40;;;20.60;64.80;;;;;;5022697;28;20041;-80
2023/03/21 12:00:19;;;;;;;4.15;1.10;;;20.70;64.80;;;;;;5020255;28;20033;-81
2023/03/21 12:02:53;;;;;;;4.75;1.20;;;20.70;64.70;;;;;;5022668;28;20038;-78
2023/03/21 12:05:33;;;;;;;5.78;1.52;;;20.70;64.60;;;;;;5021519;28;20040;-80
2023/03/21 12:08:11;;;;;;;6.80;1.63;;;20.80;64.50;;;;;;5023531;28;20036;-80
2023/03/21 12:10:44;;;;;;;8.02;3.03;;;20.80;64.40;;;;;;5022463;28;20118;-79
2023/03/21 12:13:36;;;;;;;4.35;1.25;;;20.80;64.30;;;;;;5019338;28;20381;-80
2023/03/21 12:16:36;;;;;;;4.15;1.20;;;20.70;63.90;;;;;;5019943;28;20037;-81
2023/03/21 12:19:32;;;;;;;3.97;1.30;;;20.70;63.90;;;;;;5014192;28;20138;-82
2023/03/21 12:22:17;;;;;;;5.00;1.42;;;20.60;64.00;;;;;;5022043;28;20463;-81
2023/03/21 12:24:58;;;;;;;5.90;1.70;;;20.60;64.20;;;;;;5021694;28;20034;-81
2023/03/21 12:28:03;;;;;;;7.57;1.98;;;20.50;63.80;;;;;;5012756;28;20428;-82
2023/03/21 12:30:45;;;;;;;6.78;1.60;;;20.40;63.70;;;;;;5019679;28;20946;-80
2023/03/21 12:33:37;;;;;;;10.02;2.38;;;20.30;63.70;;;;;;5027680;28;20400;-81
2023/03/21 12:36:35;;;;;;;6.93;2.75;;;20.30;63.60;;;;;;5023320;28;20033;-81
2023/03/21 12:39:07;;;;;;;5.40;1.52;;;20.20;63.30;;;;;;4993434;28;20041;-81
2023/03/21 12:42:03;;;;;;;8.73;2.97;;;20.10;63.50;;;;;;5019319;28;20033;-81
2023/03/21 12:44:32;;;;;;;2.65;1.10;;;20.10;63.40;;;;;;5019876;28;20517;-79
2023/03/21 12:47:03;;;;;;;6.60;1.80;;;20.00;63.50;;;;;;5018889;28;20053;-80
2023/03/21 12:49:32;;;;;;;4.45;1.33;;;19.90;63.30;;;;;;4990822;28;20057;-80
2023/03/21 12:52:03;;;;;;;4.20;1.35;;;19.90;63.40;;;;;;5003050;28;20035;-81
2023/03/21 12:54:41;;;;;;;5.70;1.92;;;19.90;63.40;;;;;;5007927;28;20041;-78
2023/03/21 12:57:22;;;;;;;3.90;1.50;;;19.90;63.50;;;;;;5019218;28;20036;-80
2023/03/21 13:00:14;;;;;;;3.95;1.50;;;19.80;63.30;;;;;;5007179;28;20041;-80
2023/03/21 13:02:46;;;;;;;6.70;2.85;;;19.80;63.20;;;;;;4989384;28;20184;-80
2023/03/21 13:05:30;;;;;;;6.03;1.20;;;19.90;63.40;;;;;;5024178;28;20040;-80
2023/03/21 13:08:22;;;;;;;5.85;1.98;;;19.80;63.10;;;;;;5001249;28;20029;-79
2023/03/21 13:10:49;;;;;;;5.32;1.42;;;19.90;63.20;;;;;;5005064;28;20531;-80
2023/03/21 13:13:35;;;;;;;5.15;1.55;;;19.90;63.10;;;;;;5025782;28;20029;-79
2023/03/21 13:16:32;;;;;;;5.35;1.30;;;20.00;63.00;;;;;;5007121;28;20552;-80
2023/03/21 13:19:11;;;;;;;4.50;1.70;;;20.00;62.80;;;;;;5004236;28;20033;-81
2023/03/21 13:21:59;;;;;;;5.78;1.35;;;20.10;62.90;;;;;;5005132;28;20068;-79